createdAt,value
2019-04-10T00:01:25.833Z,42.58
2019-04-10T00:03:55.154Z,41.90
2019-04-10T00:06:24.276Z,42.27
2019-04-10T00:08:53.136Z,41.88
2019-04-10T00:11:22.784Z,43.40
2019-04-10T00:13:51.518Z,41.85
2019-04-10T00:16:20.989Z,41.53
2019-04-10T00:18:50.556Z,43.45
2019-04-10T00:21:19.616Z,44.25
2019-04-10T00:23:49.198Z,42.23
2019-04-10T00:26:18.425Z,41.48
2019-04-10T00:28:47.733Z,42.90
2019-04-10T00:31:16.589Z,42.30
2019-04-10T00:33:45.207Z,41.92
2019-04-10T00:36:14.160Z,42.08
2019-04-10T00:38:42.786Z,42.15
2019-04-10T00:41:12.110Z,43.10
2019-04-10T00:43:41.552Z,42.75
2019-04-10T00:46:10.351Z,41.98
2019-04-10T00:48:39.949Z,42.20
2019-04-10T00:51:08.878Z,40.95
2019-04-10T00:53:38.727Z,43.58
2019-04-10T00:56:08.407Z,41.23
2019-04-10T00:58:37.545Z,42.67
2019-04-10T01:01:07.734Z,40.85
2019-04-10T01:03:42.570Z,42.08
2019-04-10T01:06:11.707Z,41.13
2019-04-10T01:08:40.557Z,41.63
2019-04-10T01:11:10.614Z,42.35
2019-04-10T01:13:39.833Z,41.15
2019-04-10T01:16:09.220Z,43.60
2019-04-10T01:18:37.821Z,42.98
2019-04-10T01:21:06.743Z,41.23
2019-04-10T01:23:35.970Z,42.35
2019-04-10T01:26:05.214Z,41.60
2019-04-10T01:28:33.906Z,43.15
2019-04-10T01:31:02.773Z,42.53
2019-04-10T01:33:32.506Z,41.33
2019-04-10T01:36:01.169Z,42.45
2019-04-10T01:38:49.489Z,42.38
2019-04-10T01:41:37.575Z,43.48
2019-04-10T01:44:25.414Z,39.83
2019-04-10T01:50:06.369Z,42.43
2019-04-10T01:52:55.223Z,40.48
2019-04-10T01:55:43.655Z,40.83
2019-04-10T01:58:31.502Z,40.33
2019-04-10T02:04:31.081Z,40.60
2019-04-10T02:07:20.184Z,39.03
2019-04-10T02:10:10.056Z,38.60
2019-04-10T02:12:59.031Z,38.92
2019-04-10T02:15:47.211Z,38.65
2019-04-10T02:18:35.295Z,36.77
2019-04-10T02:35:16.936Z,35.17
2019-04-10T02:43:37.987Z,31.52
2019-04-10T02:46:19.696Z,33.40
2019-04-10T02:49:00.771Z,30.15
2019-04-10T02:51:41.312Z,30.97
2019-04-10T02:54:22.839Z,30.72
2019-04-10T02:57:03.644Z,30.20
2019-04-10T02:59:45.324Z,28.60
2019-04-10T03:02:28.822Z,28.60
2019-04-10T03:05:09.463Z,27.87
2019-04-10T03:07:52.471Z,26.73
2019-04-10T03:10:41.128Z,26.82
2019-04-10T03:13:17.777Z,26.93
2019-04-10T03:15:59.926Z,25.95
2019-04-10T03:18:41.549Z,25.32
2019-04-10T03:21:22.886Z,24.85
2019-04-10T03:26:52.372Z,24.10
2019-04-10T03:29:33.210Z,23.35
2019-04-10T03:32:36.660Z,22.52
2019-04-10T03:35:22.780Z,23.00
2019-04-10T03:38:05.660Z,22.00
2019-04-10T03:40:46.639Z,21.17
2019-04-10T03:43:27.867Z,21.25
2019-04-10T03:46:09.035Z,21.05
2019-04-10T03:48:49.689Z,19.90
2019-04-10T03:51:30.458Z,20.02
2019-04-10T03:54:11.115Z,19.55
2019-04-10T03:56:52.402Z,19.07
2019-04-10T03:59:32.927Z,18.57
2019-04-10T04:02:13.701Z,19.27
2019-04-10T04:04:55.931Z,18.30
2019-04-10T04:07:36.794Z,18.82
2019-04-10T04:10:18.280Z,18.32
2019-04-10T04:13:00.198Z,18.50
2019-04-10T04:15:42.128Z,19.77
2019-04-10T04:18:22.775Z,18.42
2019-04-10T04:21:03.537Z,19.25
2019-04-10T04:23:44.687Z,19.07
2019-04-10T04:26:25.647Z,19.55
2019-04-10T04:29:06.064Z,19.32
2019-04-10T04:31:46.715Z,18.57
2019-04-10T04:34:27.443Z,19.15
2019-04-10T04:37:08.460Z,19.05
2019-04-10T04:39:48.996Z,18.62
2019-04-10T04:42:30.696Z,19.07
2019-04-10T04:45:11.511Z,18.52
2019-04-10T04:47:52.275Z,18.62
2019-04-10T04:50:34.246Z,19.85
2019-04-10T04:53:16.240Z,20.08
2019-04-10T04:55:57.651Z,19.12
2019-04-10T04:58:38.588Z,19.82
2019-04-10T05:01:19.148Z,20.30
2019-04-10T05:04:00.376Z,19.40
2019-04-10T05:06:41.811Z,19.67
2019-04-10T05:09:33.110Z,21.48
2019-04-10T05:12:05.623Z,21.52
2019-04-10T05:14:46.711Z,20.57
2019-04-10T05:17:27.431Z,21.35
2019-04-10T05:20:09.066Z,20.72
2019-04-10T05:22:52.072Z,20.20
2019-04-10T05:25:34.347Z,20.37
2019-04-10T05:33:43.329Z,19.70
2019-04-10T05:36:25.592Z,20.60
2019-04-10T05:39:07.055Z,20.17
2019-04-10T05:44:34.049Z,19.75
2019-04-10T05:50:02.047Z,20.37
2019-04-10T05:55:28.702Z,20.75
2019-04-10T05:58:13.423Z,20.12
2019-04-10T06:11:58.516Z,19.37
2019-04-10T06:14:39.889Z,20.02
2019-04-10T06:17:20.620Z,18.60
2019-04-10T06:20:01.878Z,19.25
2019-04-10T06:22:43.842Z,19.52
2019-04-10T06:25:25.261Z,19.52
2019-04-10T06:30:52.338Z,19.52
2019-04-10T06:33:34.010Z,19.32
2019-04-10T06:36:15.759Z,20.25
2019-04-10T06:38:57.169Z,19.40
2019-04-10T06:41:38.946Z,20.40
2019-04-10T06:44:20.234Z,19.15
2019-04-10T06:47:02.077Z,19.92
2019-04-10T06:49:42.530Z,19.73
2019-04-10T06:52:23.685Z,19.70
2019-04-10T06:55:05.069Z,19.75
2019-04-10T06:57:49.918Z,19.07
2019-04-10T07:00:28.583Z,19.30
2019-04-10T07:03:10.616Z,20.10
2019-04-10T07:06:03.377Z,19.82
2019-04-10T07:08:40.202Z,19.10
2019-04-10T07:11:31.387Z,19.30
2019-04-10T07:14:18.614Z,18.98
2019-04-10T07:20:09.404Z,20.20
2019-04-10T07:22:51.285Z,19.95
2019-04-10T07:25:32.030Z,20.50
2019-04-10T07:28:13.706Z,20.32
2019-04-10T07:30:59.429Z,20.12
2019-04-10T07:33:37.296Z,20.48
2019-04-10T07:36:18.214Z,21.52
2019-04-10T07:38:59.303Z,20.95
2019-04-10T07:41:43.429Z,20.30
2019-04-10T07:50:08.537Z,19.42
2019-04-10T07:55:34.374Z,18.62
2019-04-10T08:09:16.729Z,21.45
2019-04-10T08:20:30.914Z,20.37
2019-04-10T08:23:12.324Z,19.82
2019-04-10T08:25:53.755Z,21.02
2019-04-10T08:28:35.105Z,19.87
2019-04-10T08:31:15.458Z,20.30
2019-04-10T08:33:56.818Z,19.50
2019-04-10T08:36:37.847Z,20.43
2019-04-10T08:39:31.769Z,20.57
2019-04-10T08:42:02.083Z,20.17
2019-04-10T08:44:42.739Z,20.17
2019-04-10T08:47:24.838Z,19.15
2019-04-10T08:50:05.616Z,19.80
2019-04-10T08:52:47.015Z,19.82
2019-04-10T08:55:28.296Z,19.85
2019-04-10T08:58:08.971Z,19.95
2019-04-10T09:00:50.945Z,19.50
2019-04-10T09:03:32.802Z,20.30
2019-04-10T09:06:13.455Z,27.50
2019-04-10T09:08:54.382Z,21.33
2019-04-10T09:11:35.439Z,20.68
2019-04-10T09:14:17.054Z,20.80
2019-04-10T09:16:58.624Z,19.17
2019-04-10T09:19:40.266Z,19.15
2019-04-10T09:22:20.566Z,20.50
2019-04-10T09:25:01.325Z,19.92
2019-04-10T09:27:42.878Z,18.45
2019-04-10T09:30:24.746Z,19.65
2019-04-10T09:33:15.963Z,18.27
2019-04-10T09:35:48.779Z,18.87
2019-04-10T09:38:30.532Z,19.65
2019-04-10T09:41:11.915Z,20.08
2019-04-10T09:43:53.922Z,19.50
2019-04-10T09:46:35.310Z,19.55
2019-04-10T09:49:16.591Z,19.52
2019-04-10T09:51:58.540Z,18.82
2019-04-10T09:54:40.386Z,18.27
2019-04-10T09:57:20.959Z,18.52
2019-04-10T10:00:03.163Z,18.07
2019-04-10T10:02:45.254Z,19.30
2019-04-10T10:05:26.552Z,17.82
2019-04-10T10:08:08.078Z,18.45
2019-04-10T10:10:49.510Z,18.42
2019-04-10T10:13:30.306Z,18.02
2019-04-10T10:21:46.238Z,17.35
2019-04-10T10:24:27.069Z,17.73
2019-04-10T10:29:58.056Z,18.12
2019-04-10T10:32:39.455Z,17.42
2019-04-10T10:35:19.963Z,16.62
2019-04-10T10:38:01.284Z,17.80
2019-04-10T10:40:41.878Z,17.87
2019-04-10T10:43:22.749Z,18.17
2019-04-10T10:46:03.418Z,16.75
2019-04-10T10:48:44.859Z,17.05
2019-04-10T10:51:26.769Z,16.87
2019-04-10T10:54:08.563Z,16.73
2019-04-10T10:56:49.422Z,16.37
2019-04-10T10:59:30.435Z,16.17
2019-04-10T11:04:53.865Z,17.12
2019-04-10T11:07:35.407Z,16.42
2019-04-10T11:10:19.774Z,15.88
2019-04-10T11:15:43.661Z,16.45
2019-04-10T11:18:24.638Z,17.20
2019-04-10T11:21:08.869Z,16.27
2019-04-10T11:23:47.409Z,16.45
2019-04-10T11:29:14.415Z,14.63
2019-04-10T11:34:49.312Z,17.23
2019-04-10T11:40:21.048Z,16.02
2019-04-10T12:05:19.173Z,15.18
2019-04-10T12:13:22.166Z,15.18
2019-04-10T12:16:03.030Z,14.45
2019-04-10T12:18:44.135Z,14.05
2019-04-10T12:21:24.663Z,14.33
2019-04-10T12:24:05.502Z,12.90
2019-04-10T12:26:47.761Z,12.63
2019-04-10T12:29:29.080Z,12.65
2019-04-10T12:32:09.883Z,13.88
2019-04-10T12:34:50.904Z,13.60
2019-04-10T12:37:31.519Z,13.25
2019-04-10T12:40:12.142Z,12.70
2019-04-10T12:42:52.616Z,12.68
2019-04-10T12:45:33.515Z,12.68
2019-04-10T12:48:15.007Z,12.50
2019-04-10T12:50:58.710Z,12.88
2019-04-10T12:53:40.105Z,13.28
2019-04-10T12:56:22.015Z,12.28
2019-04-10T12:59:03.434Z,12.85
2019-04-10T13:01:44.891Z,12.55
2019-04-10T13:04:26.150Z,12.98
2019-04-10T13:07:07.470Z,13.50
2019-04-10T13:09:48.493Z,13.05
2019-04-10T13:12:29.281Z,12.80
2019-04-10T13:15:10.954Z,12.75
2019-04-10T13:17:51.771Z,12.05
2019-04-10T13:20:33.681Z,11.90
2019-04-10T13:23:16.040Z,12.18
2019-04-10T13:26:01.018Z,13.05
2019-04-10T13:28:39.679Z,13.28
2019-04-10T13:31:21.433Z,12.93
2019-04-10T13:34:03.062Z,12.55
2019-04-10T13:36:44.255Z,12.40
2019-04-10T13:39:25.158Z,13.05
2019-04-10T13:42:07.179Z,12.53
2019-04-10T13:44:48.891Z,12.35
2019-04-10T13:47:30.498Z,12.40
2019-04-10T13:50:11.016Z,12.00
2019-04-10T13:58:19.839Z,12.07
2019-04-10T14:01:00.959Z,12.43
2019-04-10T14:06:31.801Z,14.40
2019-04-10T14:09:31.273Z,12.60
2019-04-10T14:11:57.653Z,12.50
2019-04-10T14:14:45.767Z,11.93
2019-04-10T14:17:33.623Z,11.88
2019-04-10T14:20:15.231Z,11.45
2019-04-10T14:26:24.497Z,12.75
2019-04-10T14:29:09.310Z,12.13
2019-04-10T14:34:38.892Z,10.95
2019-04-10T14:37:19.259Z,10.72
2019-04-10T14:40:00.471Z,10.85
2019-04-10T14:50:59.805Z,11.90
2019-04-10T15:05:03.698Z,12.23
2019-04-10T15:07:44.886Z,12.63
2019-04-10T15:10:25.450Z,12.78
2019-04-10T15:13:10.893Z,11.80
2019-04-10T15:15:50.293Z,11.25
2019-04-10T15:18:33.016Z,11.08
2019-04-10T15:21:14.482Z,11.28
2019-04-10T15:23:55.927Z,11.45
2019-04-10T15:26:36.458Z,11.83
2019-04-10T15:29:16.774Z,12.23
2019-04-10T15:31:57.833Z,12.63
2019-04-10T15:34:37.489Z,11.38
2019-04-10T15:37:25.598Z,11.40
2019-04-10T15:40:19.790Z,11.95
2019-04-10T15:43:03.348Z,10.72
2019-04-10T15:48:58.484Z,11.12
2019-04-10T15:51:48.027Z,12.00
2019-04-10T15:54:43.523Z,11.68
2019-04-10T15:57:44.403Z,10.93
2019-04-10T16:03:30.340Z,11.25
2019-04-10T16:06:19.422Z,11.97
2019-04-10T16:09:07.329Z,11.70
2019-04-10T16:12:14.585Z,10.60
2019-04-10T16:20:54.807Z,10.53
2019-04-10T16:23:42.480Z,14.75
2019-04-10T16:43:29.149Z,9.60
2019-04-10T16:51:50.210Z,10.20
2019-04-10T16:54:31.276Z,9.95
2019-04-10T16:57:12.146Z,10.35
2019-04-10T16:59:52.911Z,10.35
2019-04-10T17:02:33.833Z,10.23
2019-04-10T17:05:14.730Z,9.95
2019-04-10T17:07:55.462Z,9.83
2019-04-10T17:10:36.688Z,10.00
2019-04-10T17:16:03.373Z,10.43
2019-04-10T17:18:45.265Z,10.43
2019-04-10T17:21:29.011Z,10.10
2019-04-10T17:24:09.186Z,10.65
2019-04-10T17:26:51.631Z,10.93
2019-04-10T17:29:33.420Z,9.80
2019-04-10T17:32:15.206Z,11.12
2019-04-10T17:34:56.978Z,11.33
2019-04-10T17:37:40.123Z,10.72
2019-04-10T17:40:31.213Z,10.03
2019-04-10T17:43:03.175Z,10.43
2019-04-10T17:45:44.842Z,10.55
2019-04-10T17:48:26.002Z,10.63
2019-04-10T17:51:07.962Z,10.95
2019-04-10T17:56:36.648Z,9.98
2019-04-10T18:02:05.298Z,10.70
2019-04-10T18:07:36.336Z,11.30
2019-04-10T18:13:06.272Z,10.85
2019-04-10T18:15:50.637Z,10.70
2019-04-10T18:21:16.990Z,10.68
2019-04-10T18:32:15.999Z,10.35
2019-04-10T19:09:24.625Z,9.75
2019-04-10T19:12:02.496Z,9.98
2019-04-10T19:14:44.631Z,9.45
2019-04-10T19:17:26.674Z,10.05
2019-04-10T19:20:08.930Z,10.00
2019-04-10T19:22:50.656Z,9.40
2019-04-10T19:25:32.420Z,9.70
2019-04-10T19:28:12.987Z,9.38
2019-04-10T19:34:07.281Z,9.75
2019-04-10T19:36:48.661Z,11.10
2019-04-10T19:39:30.005Z,10.78
2019-04-10T19:42:11.229Z,9.60
2019-04-10T19:44:53.058Z,9.58
2019-04-10T19:47:34.740Z,10.35
2019-04-10T19:50:15.527Z,9.68
2019-04-10T19:52:57.061Z,8.93
2019-04-10T19:55:37.974Z,9.10
2019-04-10T20:06:50.771Z,9.15
2019-04-10T20:09:32.654Z,8.93
2019-04-10T20:12:13.290Z,8.48
2019-04-10T20:14:55.291Z,8.80
2019-04-10T20:17:35.949Z,8.70
2019-04-10T20:20:17.299Z,8.35
2019-04-10T20:22:58.294Z,8.80
2019-04-10T20:25:40.737Z,8.53
2019-04-10T20:31:17.221Z,8.53
2019-04-10T20:33:59.111Z,8.38
2019-04-10T20:36:40.184Z,8.93
2019-04-10T20:39:21.105Z,8.43
2019-04-10T20:42:02.628Z,8.28
2019-04-10T20:44:43.466Z,8.75
2019-04-10T20:47:24.703Z,9.08
2019-04-10T20:50:05.877Z,8.75
2019-04-10T20:52:47.256Z,8.60
2019-04-10T20:55:28.197Z,8.78
2019-04-10T20:58:09.658Z,8.25
2019-04-10T21:03:36.425Z,8.83
2019-04-10T21:06:17.605Z,7.72
2019-04-10T21:08:59.103Z,9.05
2019-04-10T21:11:39.850Z,9.23
2019-04-10T21:14:21.149Z,8.80
2019-04-10T21:17:02.406Z,9.03
2019-04-10T21:19:43.296Z,9.03
2019-04-10T21:25:12.739Z,8.78
2019-04-10T21:27:55.073Z,8.63
2019-04-10T21:33:24.608Z,8.68
2019-04-10T21:36:09.492Z,7.95
2019-04-10T21:41:39.255Z,8.93
2019-04-10T22:17:39.038Z,9.93
2019-04-10T22:20:20.067Z,11.00
2019-04-10T22:31:33.083Z,11.08
2019-04-10T22:34:15.615Z,10.82
2019-04-10T22:36:56.322Z,10.98
2019-04-10T22:39:36.827Z,11.05
2019-04-10T22:42:17.718Z,11.45
2019-04-10T22:44:58.867Z,9.90
2019-04-10T22:47:39.499Z,11.18
2019-04-10T22:50:20.422Z,11.50
2019-04-10T22:53:01.498Z,11.10
2019-04-10T22:55:42.696Z,10.63
2019-04-10T22:58:24.635Z,10.98
2019-04-10T23:01:06.871Z,11.25
2019-04-10T23:03:47.766Z,11.12
2019-04-10T23:06:29.164Z,11.35
2019-04-10T23:09:11.835Z,12.50
2019-04-10T23:11:52.675Z,10.90
2019-04-10T23:14:34.444Z,11.73
2019-04-10T23:17:15.507Z,11.43
2019-04-10T23:19:56.440Z,12.47
2019-04-10T23:22:37.680Z,12.00
2019-04-10T23:25:18.686Z,11.45
2019-04-10T23:28:01.064Z,11.48
2019-04-10T23:30:41.499Z,12.68
2019-04-10T23:33:22.543Z,12.28
2019-04-10T23:36:02.912Z,12.68
2019-04-10T23:38:43.923Z,12.05
2019-04-10T23:41:25.434Z,11.63
2019-04-10T23:44:06.831Z,11.18
2019-04-10T23:46:47.448Z,12.40
2019-04-10T23:49:27.894Z,12.18
2019-04-10T23:52:09.639Z,11.78
2019-04-10T23:54:51.369Z,12.45
2019-04-10T23:57:32.200Z,11.75
